sensor_id;sensor_type;location;lat;lon;timestamp;P1;durP1;ratioP1;P2;durP2;ratioP2
70576;SDS011;58138;43.138;24.702;2023-02-13T00:02:23;82.60;;;44.30;;
70576;SDS011;58138;43.138;24.702;2023-02-13T00:04:49;74.40;;;42.88;;
70576;SDS011;58138;43.138;24.702;2023-02-13T00:07:15;81.32;;;44.55;;
70576;SDS011;58138;43.138;24.702;2023-02-13T00:09:44;96.38;;;55.15;;
70576;SDS011;58138;43.138;24.702;2023-02-13T00:12:10;96.07;;;54.05;;
70576;SDS011;58138;43.138;24.702;2023-02-13T00:14:36;104.30;;;59.78;;
70576;SDS011;58138;43.138;24.702;2023-02-13T00:17:05;80.32;;;46.42;;
70576;SDS011;58138;43.138;24.702;2023-02-13T00:19:31;73.30;;;37.67;;
70576;SDS011;58138;43.138;24.702;2023-02-13T00:21:57;69.63;;;36.95;;
70576;SDS011;58138;43.138;24.702;2023-02-13T00:24:23;64.35;;;35.75;;
70576;SDS011;58138;43.138;24.702;2023-02-13T00:26:53;64.35;;;31.08;;
70576;SDS011;58138;43.138;24.702;2023-02-13T00:29:18;72.35;;;39.90;;
70576;SDS011;58138;43.138;24.702;2023-02-13T00:31:44;78.80;;;44.33;;
70576;SDS011;58138;43.138;24.702;2023-02-13T00:34:11;76.63;;;43.67;;
70576;SDS011;58138;43.138;24.702;2023-02-13T00:36:37;78.72;;;46.67;;
70576;SDS011;58138;43.138;24.702;2023-02-13T00:39:03;97.10;;;52.03;;
70576;SDS011;58138;43.138;24.702;2023-02-13T00:41:29;99.68;;;56.03;;
70576;SDS011;58138;43.138;24.702;2023-02-13T00:43:59;104.93;;;59.42;;
70576;SDS011;58138;43.138;24.702;2023-02-13T00:46:25;108.35;;;58.40;;
70576;SDS011;58138;43.138;24.702;2023-02-13T00:48:52;114.47;;;61.53;;
70576;SDS011;58138;43.138;24.702;2023-02-13T00:51:18;119.97;;;64.45;;
70576;SDS011;58138;43.138;24.702;2023-02-13T00:53:43;123.63;;;66.68;;
70576;SDS011;58138;43.138;24.702;2023-02-13T00:56:09;127.00;;;70.50;;
70576;SDS011;58138;43.138;24.702;2023-02-13T00:58:35;118.18;;;66.07;;
70576;SDS011;58138;43.138;24.702;2023-02-13T01:01:03;81.65;;;46.17;;
70576;SDS011;58138;43.138;24.702;2023-02-13T01:03:29;78.00;;;43.95;;
70576;SDS011;58138;43.138;24.702;2023-02-13T01:05:58;104.47;;;58.10;;
70576;SDS011;58138;43.138;24.702;2023-02-13T01:08:27;108.93;;;59.15;;
70576;SDS011;58138;43.138;24.702;2023-02-13T01:10:53;99.10;;;55.40;;
70576;SDS011;58138;43.138;24.702;2023-02-13T01:13:20;91.45;;;51.70;;
70576;SDS011;58138;43.138;24.702;2023-02-13T01:15:46;107.22;;;59.05;;
70576;SDS011;58138;43.138;24.702;2023-02-13T01:18:16;115.28;;;62.88;;
70576;SDS011;58138;43.138;24.702;2023-02-13T01:20:43;129.40;;;70.53;;
70576;SDS011;58138;43.138;24.702;2023-02-13T01:23:20;132.30;;;74.45;;
70576;SDS011;58138;43.138;24.702;2023-02-13T01:25:47;123.38;;;67.95;;
70576;SDS011;58138;43.138;24.702;2023-02-13T01:28:16;126.38;;;69.85;;
70576;SDS011;58138;43.138;24.702;2023-02-13T01:30:42;116.75;;;62.03;;
70576;SDS011;58138;43.138;24.702;2023-02-13T01:33:16;125.25;;;69.85;;
70576;SDS011;58138;43.138;24.702;2023-02-13T01:35:42;132.13;;;71.72;;
70576;SDS011;58138;43.138;24.702;2023-02-13T01:38:07;132.60;;;71.57;;
70576;SDS011;58138;43.138;24.702;2023-02-13T01:40:35;132.40;;;73.85;;
70576;SDS011;58138;43.138;24.702;2023-02-13T01:43:01;126.82;;;71.78;;
70576;SDS011;58138;43.138;24.702;2023-02-13T01:45:28;131.07;;;72.47;;
70576;SDS011;58138;43.138;24.702;2023-02-13T01:48:04;129.10;;;71.97;;
70576;SDS011;58138;43.138;24.702;2023-02-13T01:50:42;135.63;;;76.82;;
70576;SDS011;58138;43.138;24.702;2023-02-13T01:55:52;119.25;;;65.45;;
70576;SDS011;58138;43.138;24.702;2023-02-13T01:58:24;133.63;;;71.90;;
70576;SDS011;58138;43.138;24.702;2023-02-13T02:00:52;126.53;;;68.13;;
70576;SDS011;58138;43.138;24.702;2023-02-13T02:03:20;135.75;;;68.72;;
70576;SDS011;58138;43.138;24.702;2023-02-13T02:05:49;133.43;;;73.00;;
70576;SDS011;58138;43.138;24.702;2023-02-13T02:08:16;132.32;;;74.72;;
70576;SDS011;58138;43.138;24.702;2023-02-13T02:10:44;137.65;;;72.93;;
70576;SDS011;58138;43.138;24.702;2023-02-13T02:13:14;135.90;;;75.57;;
70576;SDS011;58138;43.138;24.702;2023-02-13T02:15:43;136.35;;;72.68;;
70576;SDS011;58138;43.138;24.702;2023-02-13T02:18:19;119.80;;;66.75;;
70576;SDS011;58138;43.138;24.702;2023-02-13T02:48:17;70.25;;;35.88;;
70576;SDS011;58138;43.138;24.702;2023-02-13T02:51:26;35.75;;;15.63;;
70576;SDS011;58138;43.138;24.702;2023-02-13T02:57:13;71.78;;;34.50;;
70576;SDS011;58138;43.138;24.702;2023-02-13T02:59:42;74.15;;;38.72;;
70576;SDS011;58138;43.138;24.702;2023-02-13T03:02:27;69.88;;;36.85;;
70576;SDS011;58138;43.138;24.702;2023-02-13T03:08:27;81.40;;;43.83;;
70576;SDS011;58138;43.138;24.702;2023-02-13T03:11:12;96.13;;;49.78;;
70576;SDS011;58138;43.138;24.702;2023-02-13T03:13:59;89.03;;;47.10;;
70576;SDS011;58138;43.138;24.702;2023-02-13T03:16:26;94.68;;;51.55;;
70576;SDS011;58138;43.138;24.702;2023-02-13T03:19:21;90.50;;;49.45;;
70576;SDS011;58138;43.138;24.702;2023-02-13T03:22:08;92.32;;;47.35;;
70576;SDS011;58138;43.138;24.702;2023-02-13T03:30:52;97.68;;;49.33;;
70576;SDS011;58138;43.138;24.702;2023-02-13T03:42:38;92.32;;;48.90;;
70576;SDS011;58138;43.138;24.702;2023-02-13T03:45:13;87.18;;;45.53;;
70576;SDS011;58138;43.138;24.702;2023-02-13T03:48:10;81.57;;;44.63;;
70576;SDS011;58138;43.138;24.702;2023-02-13T03:50:58;91.32;;;45.90;;
70576;SDS011;58138;43.138;24.702;2023-02-13T03:53:27;84.13;;;45.38;;
70576;SDS011;58138;43.138;24.702;2023-02-13T03:55:54;60.08;;;31.42;;
70576;SDS011;58138;43.138;24.702;2023-02-13T03:58:43;64.38;;;32.60;;
70576;SDS011;58138;43.138;24.702;2023-02-13T04:01:30;48.72;;;23.58;;
70576;SDS011;58138;43.138;24.702;2023-02-13T04:04:00;55.17;;;27.27;;
70576;SDS011;58138;43.138;24.702;2023-02-13T04:06:38;58.08;;;29.65;;
70576;SDS011;58138;43.138;24.702;2023-02-13T04:09:28;63.55;;;32.00;;
70576;SDS011;58138;43.138;24.702;2023-02-13T04:14:32;71.45;;;37.13;;
70576;SDS011;58138;43.138;24.702;2023-02-13T04:17:17;63.72;;;35.63;;
70576;SDS011;58138;43.138;24.702;2023-02-13T04:19:58;80.93;;;44.13;;
70576;SDS011;58138;43.138;24.702;2023-02-13T04:22:24;93.80;;;47.38;;
70576;SDS011;58138;43.138;24.702;2023-02-13T04:24:50;84.22;;;42.17;;
70576;SDS011;58138;43.138;24.702;2023-02-13T04:27:16;73.70;;;41.38;;
70576;SDS011;58138;43.138;24.702;2023-02-13T04:29:42;83.72;;;45.90;;
70576;SDS011;58138;43.138;24.702;2023-02-13T04:32:12;83.70;;;42.45;;
70576;SDS011;58138;43.138;24.702;2023-02-13T04:34:41;83.90;;;43.72;;
70576;SDS011;58138;43.138;24.702;2023-02-13T04:37:07;73.28;;;39.55;;
70576;SDS011;58138;43.138;24.702;2023-02-13T04:39:33;89.47;;;47.55;;
70576;SDS011;58138;43.138;24.702;2023-02-13T04:42:02;83.35;;;43.50;;
70576;SDS011;58138;43.138;24.702;2023-02-13T04:44:28;79.93;;;40.72;;
70576;SDS011;58138;43.138;24.702;2023-02-13T04:46:54;80.40;;;43.15;;
70576;SDS011;58138;43.138;24.702;2023-02-13T04:49:20;73.95;;;41.60;;
70576;SDS011;58138;43.138;24.702;2023-02-13T04:51:47;87.07;;;43.53;;
70576;SDS011;58138;43.138;24.702;2023-02-13T04:54:13;85.60;;;46.67;;
70576;SDS011;58138;43.138;24.702;2023-02-13T04:56:38;94.40;;;44.97;;
70576;SDS011;58138;43.138;24.702;2023-02-13T04:59:08;86.80;;;44.88;;
70576;SDS011;58138;43.138;24.702;2023-02-13T05:01:34;54.80;;;26.33;;
70576;SDS011;58138;43.138;24.702;2023-02-13T05:04:00;23.92;;;11.23;;
70576;SDS011;58138;43.138;24.702;2023-02-13T05:06:27;67.05;;;32.55;;
70576;SDS011;58138;43.138;24.702;2023-02-13T05:08:53;39.22;;;19.40;;
70576;SDS011;58138;43.138;24.702;2023-02-13T05:11:18;63.25;;;29.63;;
70576;SDS011;58138;43.138;24.702;2023-02-13T05:13:45;67.25;;;33.83;;
70576;SDS011;58138;43.138;24.702;2023-02-13T05:16:10;67.28;;;36.03;;
70576;SDS011;58138;43.138;24.702;2023-02-13T05:18:36;36.72;;;15.10;;
70576;SDS011;58138;43.138;24.702;2023-02-13T05:21:03;31.33;;;13.90;;
70576;SDS011;58138;43.138;24.702;2023-02-13T05:23:47;44.97;;;17.70;;
70576;SDS011;58138;43.138;24.702;2023-02-13T05:26:13;42.00;;;18.98;;
70576;SDS011;58138;43.138;24.702;2023-02-13T05:28:39;43.55;;;21.10;;
70576;SDS011;58138;43.138;24.702;2023-02-13T05:31:23;37.92;;;16.40;;
70576;SDS011;58138;43.138;24.702;2023-02-13T05:33:49;55.70;;;24.65;;
70576;SDS011;58138;43.138;24.702;2023-02-13T05:36:15;44.53;;;22.58;;
70576;SDS011;58138;43.138;24.702;2023-02-13T05:38:43;33.53;;;14.85;;
70576;SDS011;58138;43.138;24.702;2023-02-13T05:41:09;42.63;;;21.23;;
70576;SDS011;58138;43.138;24.702;2023-02-13T05:43:37;53.85;;;27.55;;
70576;SDS011;58138;43.138;24.702;2023-02-13T05:46:06;52.72;;;21.67;;
70576;SDS011;58138;43.138;24.702;2023-02-13T05:48:34;40.67;;;20.23;;
70576;SDS011;58138;43.138;24.702;2023-02-13T05:51:00;74.05;;;36.28;;
70576;SDS011;58138;43.138;24.702;2023-02-13T05:53:29;44.40;;;17.63;;
70576;SDS011;58138;43.138;24.702;2023-02-13T05:55:55;78.30;;;40.83;;
70576;SDS011;58138;43.138;24.702;2023-02-13T05:58:21;66.63;;;35.95;;
70576;SDS011;58138;43.138;24.702;2023-02-13T06:00:53;59.05;;;29.10;;
70576;SDS011;58138;43.138;24.702;2023-02-13T06:03:22;66.93;;;36.97;;
70576;SDS011;58138;43.138;24.702;2023-02-13T06:05:48;55.25;;;28.60;;
70576;SDS011;58138;43.138;24.702;2023-02-13T06:08:14;52.70;;;26.33;;
70576;SDS011;58138;43.138;24.702;2023-02-13T06:10:45;63.10;;;30.10;;
70576;SDS011;58138;43.138;24.702;2023-02-13T06:13:11;66.05;;;34.53;;
70576;SDS011;58138;43.138;24.702;2023-02-13T06:15:38;75.82;;;39.13;;
70576;SDS011;58138;43.138;24.702;2023-02-13T06:18:04;64.15;;;35.60;;
70576;SDS011;58138;43.138;24.702;2023-02-13T06:20:30;50.67;;;26.50;;
70576;SDS011;58138;43.138;24.702;2023-02-13T06:22:56;58.72;;;31.50;;
70576;SDS011;58138;43.138;24.702;2023-02-13T06:25:22;48.85;;;24.67;;
70576;SDS011;58138;43.138;24.702;2023-02-13T06:27:48;52.17;;;26.05;;
70576;SDS011;58138;43.138;24.702;2023-02-13T06:30:14;44.30;;;24.30;;
70576;SDS011;58138;43.138;24.702;2023-02-13T06:32:43;51.15;;;27.85;;
70576;SDS011;58138;43.138;24.702;2023-02-13T06:35:11;54.47;;;29.75;;
70576;SDS011;58138;43.138;24.702;2023-02-13T06:37:38;57.83;;;27.35;;
70576;SDS011;58138;43.138;24.702;2023-02-13T06:40:09;38.35;;;16.55;;
70576;SDS011;58138;43.138;24.702;2023-02-13T06:42:38;46.38;;;19.40;;
70576;SDS011;58138;43.138;24.702;2023-02-13T06:45:04;37.30;;;14.93;;
70576;SDS011;58138;43.138;24.702;2023-02-13T06:47:30;35.25;;;18.98;;
70576;SDS011;58138;43.138;24.702;2023-02-13T06:50:02;40.85;;;21.90;;
70576;SDS011;58138;43.138;24.702;2023-02-13T06:52:28;43.03;;;23.40;;
70576;SDS011;58138;43.138;24.702;2023-02-13T06:54:55;68.05;;;36.35;;
70576;SDS011;58138;43.138;24.702;2023-02-13T06:57:21;34.85;;;18.33;;
70576;SDS011;58138;43.138;24.702;2023-02-13T06:59:46;50.25;;;26.65;;
70576;SDS011;58138;43.138;24.702;2023-02-13T07:02:17;86.53;;;43.97;;
70576;SDS011;58138;43.138;24.702;2023-02-13T07:04:43;66.20;;;30.80;;
70576;SDS011;58138;43.138;24.702;2023-02-13T07:07:09;56.42;;;26.75;;
70576;SDS011;58138;43.138;24.702;2023-02-13T07:09:36;56.17;;;26.13;;
70576;SDS011;58138;43.138;24.702;2023-02-13T07:12:05;44.55;;;23.08;;
70576;SDS011;58138;43.138;24.702;2023-02-13T07:14:32;63.58;;;32.45;;
70576;SDS011;58138;43.138;24.702;2023-02-13T07:16:58;62.38;;;34.85;;
70576;SDS011;58138;43.138;24.702;2023-02-13T07:19:29;59.67;;;32.78;;
70576;SDS011;58138;43.138;24.702;2023-02-13T07:21:56;63.53;;;37.95;;
70576;SDS011;58138;43.138;24.702;2023-02-13T07:24:22;58.85;;;34.03;;
70576;SDS011;58138;43.138;24.702;2023-02-13T07:26:50;42.17;;;24.92;;
70576;SDS011;58138;43.138;24.702;2023-02-13T07:29:15;58.65;;;33.80;;
70576;SDS011;58138;43.138;24.702;2023-02-13T07:31:42;53.40;;;28.77;;
70576;SDS011;58138;43.138;24.702;2023-02-13T07:34:09;55.58;;;35.03;;
70576;SDS011;58138;43.138;24.702;2023-02-13T07:36:36;44.38;;;27.35;;
70576;SDS011;58138;43.138;24.702;2023-02-13T07:39:02;50.70;;;30.70;;
70576;SDS011;58138;43.138;24.702;2023-02-13T07:41:30;51.50;;;31.95;;
70576;SDS011;58138;43.138;24.702;2023-02-13T07:43:59;59.40;;;35.00;;
70576;SDS011;58138;43.138;24.702;2023-02-13T07:46:25;55.15;;;35.38;;
70576;SDS011;58138;43.138;24.702;2023-02-13T07:48:54;53.22;;;34.53;;
70576;SDS011;58138;43.138;24.702;2023-02-13T07:51:33;131.68;;;81.57;;
70576;SDS011;58138;43.138;24.702;2023-02-13T07:54:09;57.75;;;37.22;;
70576;SDS011;58138;43.138;24.702;2023-02-13T07:56:35;46.72;;;31.30;;
70576;SDS011;58138;43.138;24.702;2023-02-13T07:59:02;46.33;;;31.80;;
70576;SDS011;58138;43.138;24.702;2023-02-13T08:01:28;51.13;;;34.17;;
70576;SDS011;58138;43.138;24.702;2023-02-13T08:03:54;54.10;;;34.22;;
70576;SDS011;58138;43.138;24.702;2023-02-13T08:06:23;50.95;;;33.70;;
70576;SDS011;58138;43.138;24.702;2023-02-13T08:08:49;54.63;;;37.50;;
70576;SDS011;58138;43.138;24.702;2023-02-13T08:11:34;56.25;;;39.08;;
70576;SDS011;58138;43.138;24.702;2023-02-13T08:14:24;52.03;;;34.65;;
70576;SDS011;58138;43.138;24.702;2023-02-13T08:16:50;52.72;;;35.15;;
70576;SDS011;58138;43.138;24.702;2023-02-13T08:19:17;53.55;;;35.85;;
70576;SDS011;58138;43.138;24.702;2023-02-13T08:21:45;56.20;;;35.83;;
70576;SDS011;58138;43.138;24.702;2023-02-13T08:24:11;60.80;;;37.35;;
70576;SDS011;58138;43.138;24.702;2023-02-13T08:26:37;50.75;;;34.05;;
70576;SDS011;58138;43.138;24.702;2023-02-13T08:29:04;52.90;;;34.88;;
70576;SDS011;58138;43.138;24.702;2023-02-13T08:31:30;51.75;;;33.95;;
70576;SDS011;58138;43.138;24.702;2023-02-13T08:33:56;52.00;;;35.13;;
70576;SDS011;58138;43.138;24.702;2023-02-13T08:36:23;54.97;;;36.08;;
70576;SDS011;58138;43.138;24.702;2023-02-13T08:38:49;57.70;;;35.08;;
70576;SDS011;58138;43.138;24.702;2023-02-13T08:41:20;56.88;;;36.42;;
70576;SDS011;58138;43.138;24.702;2023-02-13T08:43:47;53.95;;;36.83;;
70576;SDS011;58138;43.138;24.702;2023-02-13T08:46:16;60.65;;;41.20;;
70576;SDS011;58138;43.138;24.702;2023-02-13T08:49:00;55.78;;;38.60;;
70576;SDS011;58138;43.138;24.702;2023-02-13T08:51:40;57.88;;;39.22;;
70576;SDS011;58138;43.138;24.702;2023-02-13T08:54:05;58.08;;;39.22;;
70576;SDS011;58138;43.138;24.702;2023-02-13T08:56:31;52.15;;;33.15;;
70576;SDS011;58138;43.138;24.702;2023-02-13T08:58:57;48.15;;;36.63;;
70576;SDS011;58138;43.138;24.702;2023-02-13T09:01:22;57.08;;;38.50;;
70576;SDS011;58138;43.138;24.702;2023-02-13T09:03:48;60.55;;;39.53;;
70576;SDS011;58138;43.138;24.702;2023-02-13T09:06:14;62.30;;;35.60;;
70576;SDS011;58138;43.138;24.702;2023-02-13T09:08:42;52.53;;;34.00;;
70576;SDS011;58138;43.138;24.702;2023-02-13T09:11:11;52.23;;;32.70;;
70576;SDS011;58138;43.138;24.702;2023-02-13T09:13:37;66.47;;;42.97;;
70576;SDS011;58138;43.138;24.702;2023-02-13T09:16:06;53.42;;;34.70;;
70576;SDS011;58138;43.138;24.702;2023-02-13T09:18:33;49.00;;;32.75;;
70576;SDS011;58138;43.138;24.702;2023-02-13T09:21:01;51.65;;;34.97;;
70576;SDS011;58138;43.138;24.702;2023-02-13T09:23:31;48.38;;;33.05;;
70576;SDS011;58138;43.138;24.702;2023-02-13T09:25:59;44.60;;;30.90;;
70576;SDS011;58138;43.138;24.702;2023-02-13T09:28:27;46.25;;;32.28;;
70576;SDS011;58138;43.138;24.702;2023-02-13T09:30:55;47.90;;;32.95;;
70576;SDS011;58138;43.138;24.702;2023-02-13T09:33:23;43.83;;;31.08;;
70576;SDS011;58138;43.138;24.702;2023-02-13T09:35:50;41.72;;;31.08;;
70576;SDS011;58138;43.138;24.702;2023-02-13T09:38:19;68.75;;;43.72;;
70576;SDS011;58138;43.138;24.702;2023-02-13T09:40:52;50.47;;;31.73;;
70576;SDS011;58138;43.138;24.702;2023-02-13T09:43:42;58.47;;;34.38;;
70576;SDS011;58138;43.138;24.702;2023-02-13T09:49:06;45.72;;;30.75;;
70576;SDS011;58138;43.138;24.702;2023-02-13T09:51:37;45.38;;;30.77;;
70576;SDS011;58138;43.138;24.702;2023-02-13T09:54:05;45.10;;;30.33;;
70576;SDS011;58138;43.138;24.702;2023-02-13T09:56:40;44.67;;;30.35;;
70576;SDS011;58138;43.138;24.702;2023-02-13T10:01:55;40.08;;;27.52;;
70576;SDS011;58138;43.138;24.702;2023-02-13T10:04:59;40.20;;;27.43;;
70576;SDS011;58138;43.138;24.702;2023-02-13T10:07:47;41.83;;;29.40;;
70576;SDS011;58138;43.138;24.702;2023-02-13T10:13:13;40.90;;;28.13;;
70576;SDS011;58138;43.138;24.702;2023-02-13T10:19:10;41.47;;;30.02;;
70576;SDS011;58138;43.138;24.702;2023-02-13T10:21:44;38.13;;;27.83;;
70576;SDS011;58138;43.138;24.702;2023-02-13T10:27:17;36.00;;;26.80;;
70576;SDS011;58138;43.138;24.702;2023-02-13T10:30:04;55.42;;;35.63;;
70576;SDS011;58138;43.138;24.702;2023-02-13T10:32:57;37.25;;;26.95;;
70576;SDS011;58138;43.138;24.702;2023-02-13T10:38:18;43.08;;;29.17;;
70576;SDS011;58138;43.138;24.702;2023-02-13T10:46:33;40.85;;;29.00;;
70576;SDS011;58138;43.138;24.702;2023-02-13T10:57:26;41.35;;;28.45;;
70576;SDS011;58138;43.138;24.702;2023-02-13T11:00:15;38.95;;;27.90;;
70576;SDS011;58138;43.138;24.702;2023-02-13T11:02:51;40.20;;;29.67;;
70576;SDS011;58138;43.138;24.702;2023-02-13T11:05:24;40.55;;;28.67;;
70576;SDS011;58138;43.138;24.702;2023-02-13T11:07:55;39.83;;;27.40;;
70576;SDS011;58138;43.138;24.702;2023-02-13T11:10:23;39.85;;;29.95;;
70576;SDS011;58138;43.138;24.702;2023-02-13T11:12:57;43.33;;;29.80;;
70576;SDS011;58138;43.138;24.702;2023-02-13T11:15:40;42.22;;;29.35;;
70576;SDS011;58138;43.138;24.702;2023-02-13T11:18:21;43.90;;;29.73;;
70576;SDS011;58138;43.138;24.702;2023-02-13T11:21:04;46.15;;;32.55;;
70576;SDS011;58138;43.138;24.702;2023-02-13T11:23:35;56.88;;;38.30;;
70576;SDS011;58138;43.138;24.702;2023-02-13T11:26:04;51.33;;;31.55;;
70576;SDS011;58138;43.138;24.702;2023-02-13T11:28:38;50.03;;;32.72;;
70576;SDS011;58138;43.138;24.702;2023-02-13T11:33:47;39.83;;;27.08;;
70576;SDS011;58138;43.138;24.702;2023-02-13T11:36:33;40.72;;;30.67;;
70576;SDS011;58138;43.138;24.702;2023-02-13T11:39:03;44.63;;;32.53;;
70576;SDS011;58138;43.138;24.702;2023-02-13T11:41:35;53.00;;;34.17;;
70576;SDS011;58138;43.138;24.702;2023-02-13T11:44:06;45.20;;;27.35;;
70576;SDS011;58138;43.138;24.702;2023-02-13T11:46:56;43.38;;;28.38;;
70576;SDS011;58138;43.138;24.702;2023-02-13T11:51:51;41.65;;;28.20;;
70576;SDS011;58138;43.138;24.702;2023-02-13T11:59:59;34.90;;;26.13;;
70576;SDS011;58138;43.138;24.702;2023-02-13T12:02:50;40.50;;;26.70;;
70576;SDS011;58138;43.138;24.702;2023-02-13T12:05:23;37.65;;;26.80;;
70576;SDS011;58138;43.138;24.702;2023-02-13T12:07:51;35.42;;;26.50;;
70576;SDS011;58138;43.138;24.702;2023-02-13T12:10:31;35.08;;;24.67;;
70576;SDS011;58138;43.138;24.702;2023-02-13T12:15:39;37.33;;;26.70;;
70576;SDS011;58138;43.138;24.702;2023-02-13T12:21:00;41.65;;;29.70;;
70576;SDS011;58138;43.138;24.702;2023-02-13T12:31:47;36.72;;;27.40;;
70576;SDS011;58138;43.138;24.702;2023-02-13T12:42:31;36.72;;;25.88;;
70576;SDS011;58138;43.138;24.702;2023-02-13T12:50:38;35.38;;;24.23;;
70576;SDS011;58138;43.138;24.702;2023-02-13T12:53:10;37.53;;;26.00;;
70576;SDS011;58138;43.138;24.702;2023-02-13T13:03:53;38.47;;;26.75;;
70576;SDS011;58138;43.138;24.702;2023-02-13T13:09:21;42.42;;;31.58;;
70576;SDS011;58138;43.138;24.702;2023-02-13T13:12:16;35.65;;;27.50;;
70576;SDS011;58138;43.138;24.702;2023-02-13T13:18:08;34.83;;;26.88;;
70576;SDS011;58138;43.138;24.702;2023-02-13T13:23:30;40.22;;;29.50;;
70576;SDS011;58138;43.138;24.702;2023-02-13T13:29:02;37.60;;;26.05;;
70576;SDS011;58138;43.138;24.702;2023-02-13T13:31:31;37.58;;;26.13;;
70576;SDS011;58138;43.138;24.702;2023-02-13T13:34:00;41.42;;;28.55;;
70576;SDS011;58138;43.138;24.702;2023-02-13T13:36:42;34.92;;;26.17;;
70576;SDS011;58138;43.138;24.702;2023-02-13T13:39:35;36.05;;;25.65;;
70576;SDS011;58138;43.138;24.702;2023-02-13T13:42:41;36.20;;;26.25;;
70576;SDS011;58138;43.138;24.702;2023-02-13T13:50:24;36.67;;;25.42;;
70576;SDS011;58138;43.138;24.702;2023-02-13T13:53:26;36.95;;;26.23;;
70576;SDS011;58138;43.138;24.702;2023-02-13T13:58:24;35.38;;;24.42;;
70576;SDS011;58138;43.138;24.702;2023-02-13T14:03:39;35.83;;;26.08;;
70576;SDS011;58138;43.138;24.702;2023-02-13T14:06:16;39.45;;;28.48;;
70576;SDS011;58138;43.138;24.702;2023-02-13T14:13:59;36.90;;;26.75;;
70576;SDS011;58138;43.138;24.702;2023-02-13T14:16:43;43.83;;;27.65;;
70576;SDS011;58138;43.138;24.702;2023-02-13T14:19:24;38.15;;;26.80;;
70576;SDS011;58138;43.138;24.702;2023-02-13T14:21:55;37.47;;;25.90;;
70576;SDS011;58138;43.138;24.702;2023-02-13T14:27:22;38.97;;;26.90;;
70576;SDS011;58138;43.138;24.702;2023-02-13T14:30:00;46.65;;;28.30;;
70576;SDS011;58138;43.138;24.702;2023-02-13T14:32:35;38.00;;;26.77;;
70576;SDS011;58138;43.138;24.702;2023-02-13T14:38:05;45.83;;;29.55;;
70576;SDS011;58138;43.138;24.702;2023-02-13T14:43:21;48.60;;;33.63;;
70576;SDS011;58138;43.138;24.702;2023-02-13T14:46:03;49.65;;;33.00;;
70576;SDS011;58138;43.138;24.702;2023-02-13T14:48:35;47.70;;;32.70;;
70576;SDS011;58138;43.138;24.702;2023-02-13T14:51:05;49.15;;;32.78;;
70576;SDS011;58138;43.138;24.702;2023-02-13T14:53:49;51.78;;;35.38;;
70576;SDS011;58138;43.138;24.702;2023-02-13T14:56:19;56.42;;;36.05;;
70576;SDS011;58138;43.138;24.702;2023-02-13T14:58:51;52.53;;;34.13;;
70576;SDS011;58138;43.138;24.702;2023-02-13T15:01:47;62.75;;;39.55;;
70576;SDS011;58138;43.138;24.702;2023-02-13T15:04:43;59.72;;;37.20;;
70576;SDS011;58138;43.138;24.702;2023-02-13T15:07:18;75.55;;;40.33;;
70576;SDS011;58138;43.138;24.702;2023-02-13T15:10:04;66.55;;;35.35;;
70576;SDS011;58138;43.138;24.702;2023-02-13T15:12:55;80.47;;;38.38;;
70576;SDS011;58138;43.138;24.702;2023-02-13T15:15:25;60.42;;;38.42;;
70576;SDS011;58138;43.138;24.702;2023-02-13T15:17:52;66.43;;;42.05;;
70576;SDS011;58138;43.138;24.702;2023-02-13T15:20:25;74.00;;;41.17;;
70576;SDS011;58138;43.138;24.702;2023-02-13T15:22:53;76.47;;;45.10;;
70576;SDS011;58138;43.138;24.702;2023-02-13T15:25:36;82.07;;;48.47;;
70576;SDS011;58138;43.138;24.702;2023-02-13T15:28:05;72.40;;;44.60;;
70576;SDS011;58138;43.138;24.702;2023-02-13T15:30:34;76.28;;;44.53;;
70576;SDS011;58138;43.138;24.702;2023-02-13T15:33:02;87.95;;;51.22;;
70576;SDS011;58138;43.138;24.702;2023-02-13T15:35:42;104.90;;;53.45;;
70576;SDS011;58138;43.138;24.702;2023-02-13T15:38:16;86.82;;;48.60;;
70576;SDS011;58138;43.138;24.702;2023-02-13T15:40:43;87.22;;;45.92;;
70576;SDS011;58138;43.138;24.702;2023-02-13T15:43:19;76.18;;;44.13;;
70576;SDS011;58138;43.138;24.702;2023-02-13T15:45:47;77.78;;;41.85;;
70576;SDS011;58138;43.138;24.702;2023-02-13T15:48:15;73.95;;;42.70;;
70576;SDS011;58138;43.138;24.702;2023-02-13T15:50:41;72.75;;;42.83;;
70576;SDS011;58138;43.138;24.702;2023-02-13T15:53:14;87.35;;;44.47;;
70576;SDS011;58138;43.138;24.702;2023-02-13T15:55:40;84.10;;;41.88;;
70576;SDS011;58138;43.138;24.702;2023-02-13T15:58:10;78.63;;;43.13;;
70576;SDS011;58138;43.138;24.702;2023-02-13T16:00:40;83.72;;;44.72;;
70576;SDS011;58138;43.138;24.702;2023-02-13T16:03:13;95.03;;;44.58;;
70576;SDS011;58138;43.138;24.702;2023-02-13T16:05:44;91.47;;;49.38;;
70576;SDS011;58138;43.138;24.702;2023-02-13T16:08:29;94.00;;;46.97;;
70576;SDS011;58138;43.138;24.702;2023-02-13T16:13:34;92.25;;;51.75;;
70576;SDS011;58138;43.138;24.702;2023-02-13T16:16:07;90.88;;;52.38;;
70576;SDS011;58138;43.138;24.702;2023-02-13T16:18:34;98.05;;;54.75;;
70576;SDS011;58138;43.138;24.702;2023-02-13T16:21:00;117.07;;;60.90;;
70576;SDS011;58138;43.138;24.702;2023-02-13T16:23:29;119.88;;;58.60;;
70576;SDS011;58138;43.138;24.702;2023-02-13T16:25:59;84.85;;;49.28;;
70576;SDS011;58138;43.138;24.702;2023-02-13T16:28:39;109.07;;;56.45;;
70576;SDS011;58138;43.138;24.702;2023-02-13T16:31:11;107.55;;;58.20;;
70576;SDS011;58138;43.138;24.702;2023-02-13T16:33:39;113.47;;;67.38;;
70576;SDS011;58138;43.138;24.702;2023-02-13T16:38:39;136.90;;;82.80;;
70576;SDS011;58138;43.138;24.702;2023-02-13T16:43:45;109.75;;;66.53;;
70576;SDS011;58138;43.138;24.702;2023-02-13T16:54:19;113.22;;;66.50;;
70576;SDS011;58138;43.138;24.702;2023-02-13T16:56:58;106.57;;;62.85;;
70576;SDS011;58138;43.138;24.702;2023-02-13T16:59:33;98.68;;;57.08;;
70576;SDS011;58138;43.138;24.702;2023-02-13T17:04:45;90.63;;;48.78;;
70576;SDS011;58138;43.138;24.702;2023-02-13T17:07:23;129.15;;;68.32;;
70576;SDS011;58138;43.138;24.702;2023-02-13T17:10:24;103.32;;;57.20;;
70576;SDS011;58138;43.138;24.702;2023-02-13T17:12:55;115.93;;;62.45;;
70576;SDS011;58138;43.138;24.702;2023-02-13T17:15:24;97.57;;;52.60;;
70576;SDS011;58138;43.138;24.702;2023-02-13T17:17:51;102.32;;;56.38;;
70576;SDS011;58138;43.138;24.702;2023-02-13T17:20:22;87.10;;;50.65;;
70576;SDS011;58138;43.138;24.702;2023-02-13T17:22:52;98.50;;;53.63;;
70576;SDS011;58138;43.138;24.702;2023-02-13T17:27:53;82.38;;;47.40;;
70576;SDS011;58138;43.138;24.702;2023-02-13T17:30:24;91.95;;;52.58;;
70576;SDS011;58138;43.138;24.702;2023-02-13T17:33:01;91.28;;;53.08;;
70576;SDS011;58138;43.138;24.702;2023-02-13T17:35:34;85.50;;;50.13;;
70576;SDS011;58138;43.138;24.702;2023-02-13T17:38:01;83.47;;;47.40;;
70576;SDS011;58138;43.138;24.702;2023-02-13T17:40:27;92.03;;;52.30;;
70576;SDS011;58138;43.138;24.702;2023-02-13T17:42:55;98.40;;;57.22;;